Time;durP1;ratioP1;P1;durP2;ratioP2;P2;SDS_P1;SDS_P2;PMS_P1;PMS_P2;Temp;Humidity;BMP_temperature;BMP_pressure;BME280_temperature;BME280_humidity;BME280_pressure;Samples;Min_cycle;Max_cycle;Signal;HPM_P1;HPM_P2
2022/04/04 00:00:34;;;;;;;;;4.75;4.75;;;;;17.75;26.46;101776.41;4975929;28;45856;-66
2022/04/04 00:02:59;;;;;;;;;3.25;3.25;;;;;17.75;26.70;101779.88;4975557;28;45386;-65
2022/04/04 00:05:24;;;;;;;;;3.25;3.25;;;;;17.77;26.75;101782.47;4974212;28;45536;-66
2022/04/04 00:07:50;;;;;;;;;3.75;3.75;;;;;17.75;26.72;101779.03;4975366;28;46210;-67
2022/04/04 00:10:15;;;;;;;;;4.00;3.00;;;;;17.76;26.92;101778.97;4973411;28;45931;-64
2022/04/04 00:12:40;;;;;;;;;4.25;4.25;;;;;17.76;26.83;101776.34;4975425;28;45461;-65
2022/04/04 00:15:06;;;;;;;;;4.50;4.50;;;;;17.77;26.87;101788.56;4975796;28;45500;-64
2022/04/04 00:17:32;;;;;;;;;4.25;4.25;;;;;17.76;26.90;101781.59;4975336;28;45461;-66
2022/04/04 00:19:57;;;;;;;;;6.25;4.00;;;;;17.76;26.83;101781.59;4973829;28;45344;-64
2022/04/04 00:22:22;;;;;;;;;5.00;4.00;;;;;17.76;26.92;101786.84;4975438;28;45208;-66
2022/04/04 00:24:48;;;;;;;;;4.00;4.00;;;;;17.74;26.58;101782.56;4975418;28;45473;-61
2022/04/04 00:27:13;;;;;;;;;4.25;3.00;;;;;17.76;26.98;101780.75;4974998;28;46151;-65
2022/04/04 00:29:38;;;;;;;;;5.00;4.25;;;;;17.76;27.02;101778.97;4975039;28;45307;-65
2022/04/04 00:32:04;;;;;;;;;5.00;3.25;;;;;17.74;26.82;101775.56;4975555;28;45264;-63
2022/04/04 00:34:30;;;;;;;;;5.50;5.50;;;;;17.73;27.16;101773.84;4975357;28;45552;-64
2022/04/04 00:36:55;;;;;;;;;4.75;4.75;;;;;17.75;27.02;101776.41;4974807;28;45303;-66
2022/04/04 00:39:20;;;;;;;;;3.75;3.75;;;;;17.76;27.22;101771.13;4974861;28;50549;-67
2022/04/04 00:41:47;;;;;;;;;4.00;4.00;;;;;17.80;27.17;101763.16;4973912;28;45281;-66
2022/04/04 00:44:12;;;;;;;;;4.75;3.25;;;;;17.83;27.35;101769.19;4975459;28;45443;-66
2022/04/04 00:46:40;;;;;;;;;4.25;4.25;;;;;17.87;27.28;101760.34;4975287;28;45413;-64
2022/04/04 00:49:06;;;;;;;;;6.50;5.00;;;;;17.94;27.29;101758.38;4975099;28;45457;-66
2022/04/04 00:51:31;;;;;;;;;4.25;4.25;;;;;17.99;27.43;101766.16;4974931;28;45521;-67
2022/04/04 00:53:57;;;;;;;;;3.00;3.00;;;;;18.04;27.40;101764.22;4975224;28;45301;-66
2022/04/04 00:56:25;;;;;;;;;3.00;3.00;;;;;18.11;27.80;101763.16;4974653;28;46707;-66
2022/04/04 00:58:51;;;;;;;;;4.50;4.50;;;;;18.16;27.39;101763.03;4974848;28;45236;-66
2022/04/04 01:01:16;;;;;;;;;3.75;3.75;;;;;18.21;27.41;101755.84;4974990;28;45315;-66
2022/04/04 01:03:41;;;;;;;;;7.50;4.00;;;;;18.27;27.41;101766.19;4974951;28;45310;-65
2022/04/04 01:06:07;;;;;;;;;6.00;5.00;;;;;18.32;27.32;101766.03;4975118;28;45364;-66
2022/04/04 01:08:32;;;;;;;;;4.00;3.25;;;;;18.36;27.16;101759.75;4974821;28;45472;-65
2022/04/04 01:10:57;;;;;;;;;5.00;4.00;;;;;18.41;27.53;101763.13;4973403;28;45426;-66
2022/04/04 01:13:23;;;;;;;;;4.00;4.00;;;;;18.44;27.42;101752.53;4974818;28;45411;-65
2022/04/04 01:15:48;;;;;;;;;5.00;4.25;;;;;18.47;27.13;101752.41;4973251;28;47152;-64
2022/04/04 01:18:14;;;;;;;;;4.00;4.00;;;;;18.48;27.58;101748.03;4974477;28;45398;-66
2022/04/04 01:20:39;;;;;;;;;3.75;3.75;;;;;18.51;27.24;101754.03;4973697;28;45403;-64
2022/04/04 01:23:05;;;;;;;;;3.75;3.75;;;;;18.52;27.19;101754.91;4974177;28;45392;-64
2022/04/04 01:25:35;;;;;;;;;5.25;4.00;;;;;18.52;27.22;101745.25;4974646;28;45291;-64
2022/04/04 01:28:01;;;;;;;;;4.50;3.25;;;;;18.53;27.25;101754.84;4974776;28;45709;-64
2022/04/04 01:30:27;;;;;;;;;3.75;3.25;;;;;18.53;27.41;101752.22;4974648;28;45405;-62
2022/04/04 01:32:53;;;;;;;;;4.00;4.00;;;;;18.54;27.48;101743.44;4974770;28;45488;-64
2022/04/04 01:35:19;;;;;;;;;3.00;3.00;;;;;18.56;27.36;101742.53;4974218;28;46185;-65
2022/04/04 01:37:46;;;;;;;;;5.00;5.00;;;;;18.56;27.27;101738.13;4974382;28;45966;-63
2022/04/04 01:40:11;;;;;;;;;4.75;4.00;;;;;18.57;27.31;101746.88;4974430;28;45900;-62
2022/04/04 01:42:38;;;;;;;;;2.00;2.00;;;;;18.57;27.21;101741.63;4975061;28;45429;-64
2022/04/04 01:45:09;;;;;;;;;3.25;3.25;;;;;18.58;27.57;101735.44;4974359;28;46114;-64
2022/04/04 01:47:35;;;;;;;;;6.25;4.00;;;;;18.58;27.31;101738.94;4974094;28;46112;-63
2022/04/04 01:50:01;;;;;;;;;3.50;2.75;;;;;18.58;27.03;101732.81;4974345;28;45405;-65
2022/04/04 01:52:27;;;;;;;;;3.00;3.00;;;;;18.58;27.27;101730.19;4974414;28;45257;-63
2022/04/04 01:54:52;;;;;;;;;3.25;3.00;;;;;18.59;27.31;101729.28;4973859;28;45321;-63
2022/04/04 01:57:17;;;;;;;;;4.00;4.00;;;;;18.59;27.06;101731.91;4974216;28;45410;-63
2022/04/04 01:59:43;;;;;;;;;3.75;2.25;;;;;18.58;27.43;101725.81;4972919;28;45415;-62
2022/04/04 02:02:08;;;;;;;;;3.25;3.25;;;;;18.59;27.15;101724.91;4973357;28;45689;-65
2022/04/04 02:04:34;;;;;;;;;3.25;3.25;;;;;18.60;27.24;101725.75;4973935;28;46475;-64
2022/04/04 02:06:59;;;;;;;;;3.50;2.00;;;;;18.60;27.21;101721.38;4973844;28;45249;-65
2022/04/04 02:09:25;;;;;;;;;2.00;2.00;;;;;18.60;27.37;101717.88;4974247;28;45362;-63
2022/04/04 02:11:50;;;;;;;;;3.00;3.00;;;;;18.61;27.23;101716.97;4974158;28;45242;-64
2022/04/04 02:14:16;;;;;;;;;2.75;2.75;;;;;18.60;27.14;101710.00;4973828;28;46312;-63
2022/04/04 02:16:42;;;;;;;;;2.75;2.75;;;;;18.59;27.21;101713.53;4974006;28;45514;-66
2022/04/04 02:19:08;;;;;;;;;4.00;4.00;;;;;18.59;27.17;101709.16;4974211;28;45493;-65
2022/04/04 02:21:34;;;;;;;;;3.00;3.00;;;;;18.58;27.19;101710.06;4973953;28;45578;-64
2022/04/04 02:23:59;;;;;;;;;3.00;3.00;;;;;18.58;27.31;101706.56;4973745;28;45346;-63
2022/04/04 02:26:24;;;;;;;;;3.00;3.00;;;;;18.58;27.10;101712.69;4973710;28;45476;-65
2022/04/04 02:28:50;;;;;;;;;3.00;3.00;;;;;18.57;27.21;101699.63;4973916;28;45448;-64
2022/04/04 02:31:15;;;;;;;;;2.67;2.67;;;;;18.58;27.28;101701.31;4973640;28;45791;-65
2022/04/04 02:33:40;;;;;;;;;3.50;2.50;;;;;18.57;27.22;101699.63;4977237;28;46647;-66
2022/04/04 02:36:08;;;;;;;;;2.00;2.00;;;;;18.54;27.24;101693.56;4980145;28;45410;-66
2022/04/04 02:38:34;;;;;;;;;3.50;3.50;;;;;18.54;27.58;101701.44;4980063;28;45404;-66
2022/04/04 02:40:59;;;;;;;;;5.25;3.75;;;;;18.54;27.29;101701.44;4980402;28;45174;-67
2022/04/04 02:43:25;;;;;;;;;5.00;3.00;;;;;18.54;27.24;101696.19;4979941;28;46300;-65
2022/04/04 02:45:51;;;;;;;;;1.50;1.50;;;;;18.54;27.21;101695.31;4979915;28;45284;-64
2022/04/04 02:48:17;;;;;;;;;5.50;2.50;;;;;18.52;27.15;101690.13;4978980;28;45241;-66
2022/04/04 02:50:44;;;;;;;;;3.75;3.75;;;;;18.52;27.17;101692.75;4979358;28;45544;-65
2022/04/04 02:53:10;;;;;;;;;2.75;2.75;;;;;18.51;27.18;101691.03;4978871;28;48108;-65
2022/04/04 02:58:19;;;;;;;;;3.25;3.25;;;;;18.49;27.21;101687.59;4979814;28;45477;-66
2022/04/04 03:00:45;;;;;;;;;2.00;2.00;;;;;18.49;27.29;101692.00;4980033;28;45479;-65
2022/04/04 03:03:11;;;;;;;;;4.00;3.00;;;;;18.48;27.13;101693.75;4978672;28;46823;-65
2022/04/04 03:05:36;;;;;;;;;2.50;2.00;;;;;18.47;27.23;101688.56;4979600;28;45427;-66
2022/04/04 03:08:01;;;;;;;;;3.00;3.00;;;;;18.47;27.01;101683.31;4979731;28;45460;-66
2022/04/04 03:10:27;;;;;;;;;1.25;1.25;;;;;18.46;27.34;101684.22;4979796;28;45388;-64
2022/04/04 03:12:52;;;;;;;;;3.00;2.25;;;;;18.46;27.31;101679.84;4979212;28;45513;-65
2022/04/04 03:15:21;;;;;;;;;2.25;2.00;;;;;18.42;27.48;101672.97;4979463;28;45325;-62
2022/04/04 03:17:51;;;;;;;;;2.00;2.00;;;;;18.43;27.62;101673.81;4979429;28;45672;-65
2022/04/04 03:20:19;;;;;;;;;2.75;2.75;;;;;18.42;27.33;101675.59;4979750;28;45473;-65
2022/04/04 03:22:47;;;;;;;;;4.00;4.00;;;;;18.42;27.33;101675.59;4979590;28;45249;-65
2022/04/04 03:25:14;;;;;;;;;1.25;1.25;;;;;18.42;27.40;101670.34;4978284;28;45380;-63
2022/04/04 03:27:41;;;;;;;;;3.25;2.75;;;;;18.42;27.29;101670.34;4978150;28;45360;-66
2022/04/04 03:30:08;;;;;;;;;3.00;3.00;;;;;18.41;27.27;101667.78;4979592;28;45438;-66
2022/04/04 03:32:34;;;;;;;;;2.00;2.00;;;;;18.40;27.24;101661.66;4979088;28;45352;-66
2022/04/04 03:35:01;;;;;;;;;2.00;2.00;;;;;18.39;27.29;101659.94;4977890;28;45621;-66
2022/04/04 03:37:27;;;;;;;;;2.00;2.00;;;;;18.38;27.44;101659.09;4979628;28;45193;-63
2022/04/04 03:39:52;;;;;;;;;2.75;1.50;;;;;18.37;27.31;101657.38;4979389;28;45382;-65
2022/04/04 03:42:19;;;;;;;;;3.75;2.00;;;;;18.37;27.37;101656.50;4979072;28;45294;-65
2022/04/04 03:44:45;;;;;;;;;2.25;2.25;;;;;18.36;27.51;101652.16;4977190;28;45295;-65
2022/04/04 03:47:10;;;;;;;;;1.00;1.00;;;;;18.34;27.37;101646.97;4975667;28;45353;-66
2022/04/04 03:49:39;;;;;;;;;2.75;1.75;;;;;18.34;27.42;101651.38;4975936;28;45354;-66
2022/04/04 03:52:06;;;;;;;;;3.25;3.25;;;;;18.33;27.54;101652.28;4975554;28;45463;-64
2022/04/04 03:54:32;;;;;;;;;3.00;2.00;;;;;18.32;27.62;101647.94;4975606;28;45969;-64
2022/04/04 03:56:57;;;;;;;;;3.00;2.00;;;;;18.33;27.31;101644.41;4975662;28;45229;-64
2022/04/04 03:59:23;;;;;;;;;3.50;3.50;;;;;18.30;27.38;101634.00;4958247;28;45421;-63
2022/04/04 04:01:48;;;;;;;;;4.00;2.00;;;;;18.31;27.71;101628.69;4975398;28;47797;-65
2022/04/04 04:04:14;;;;;;;;;3.00;2.00;;;;;18.30;27.45;101634.00;4975761;28;45382;-64
2022/04/04 04:06:39;;;;;;;;;1.75;1.50;;;;;18.29;27.48;101624.41;4975789;28;45458;-66
2022/04/04 04:09:04;;;;;;;;;3.25;3.00;;;;;18.29;27.45;101629.66;4974367;28;45446;-65
2022/04/04 04:11:30;;;;;;;;;1.00;1.00;;;;;18.28;27.38;101635.81;4975259;28;45453;-64
2022/04/04 04:13:55;;;;;;;;;2.00;2.00;;;;;18.26;27.45;101635.00;4975373;28;45324;-64
2022/04/04 04:16:23;;;;;;;;;2.00;2.00;;;;;18.26;27.64;101622.75;4974173;28;45357;-65
2022/04/04 04:18:49;;;;;;;;;3.00;3.00;;;;;18.24;27.33;101625.41;4975530;28;45346;-62
2022/04/04 04:21:15;;;;;;;;;2.25;2.25;;;;;18.23;27.41;101615.84;4974122;28;48452;-65
2022/04/04 04:23:40;;;;;;;;;2.00;2.00;;;;;18.26;27.34;101616.63;4975174;28;45324;-63
2022/04/04 04:26:07;;;;;;;;;3.25;2.00;;;;;18.22;27.52;101611.50;4975329;28;45397;-63
2022/04/04 04:28:33;;;;;;;;;1.25;1.25;;;;;18.23;27.48;101607.09;4975415;28;45492;-63
2022/04/04 04:30:59;;;;;;;;;2.00;2.00;;;;;18.22;27.50;101613.25;4975089;28;46134;-64
2022/04/04 04:33:25;;;;;;;;;2.00;2.00;;;;;18.21;27.47;101606.28;4975106;28;45396;-64
2022/04/04 04:35:51;;;;;;;;;4.50;4.00;;;;;18.20;27.41;101605.44;4975046;28;45384;-65
2022/04/04 04:38:17;;;;;;;;;3.25;2.00;;;;;18.20;27.36;101601.94;4975605;28;45359;-65
2022/04/04 04:40:42;;;;;;;;;3.00;3.00;;;;;18.19;27.49;101605.50;4974961;28;46290;-65
2022/04/04 04:43:08;;;;;;;;;3.00;3.00;;;;;18.18;27.51;101599.38;4973676;28;45302;-65
2022/04/04 04:45:33;;;;;;;;;2.25;2.25;;;;;18.17;27.38;101589.78;4975131;28;45263;-64
2022/04/04 04:47:59;;;;;;;;;2.75;2.75;;;;;18.17;27.69;101591.56;4973918;28;45549;-66
2022/04/04 04:50:25;;;;;;;;;3.25;3.00;;;;;18.16;27.43;101592.47;4974966;28;45410;-66
2022/04/04 04:52:51;;;;;;;;;4.50;4.50;;;;;18.16;27.44;101593.31;4974693;28;45366;-66
2022/04/04 04:55:18;;;;;;;;;3.00;3.00;;;;;18.15;27.45;101593.38;4975241;28;45422;-65
2022/04/04 04:57:44;;;;;;;;;2.00;2.00;;;;;18.15;27.43;101599.47;4974885;28;45562;-65
2022/04/04 05:00:13;;;;;;;;;3.75;2.75;;;;;18.13;27.40;101601.31;4974844;28;45492;-65
2022/04/04 05:02:39;;;;;;;;;1.75;1.75;;;;;18.12;27.52;101594.34;4974934;28;45883;-65
2022/04/04 05:05:04;;;;;;;;;3.75;3.75;;;;;18.11;27.50;101591.75;4975018;28;45465;-64
2022/04/04 05:07:30;;;;;;;;;4.25;4.25;;;;;18.12;27.39;101593.47;4974928;28;45244;-66
2022/04/04 05:09:56;;;;;;;;;3.00;3.00;;;;;18.08;27.46;101590.09;4974765;28;46110;-64
2022/04/04 05:12:21;;;;;;;;;3.50;2.75;;;;;18.09;27.54;101599.69;4974842;28;45358;-60
2022/04/04 05:14:48;;;;;;;;;3.00;3.00;;;;;18.10;27.51;101590.91;4975248;28;45386;-63
2022/04/04 05:17:13;;;;;;;;;4.25;2.00;;;;;18.07;27.66;101597.13;4974887;28;45550;-66
2022/04/04 05:19:39;;;;;;;;;1.00;1.00;;;;;18.07;27.72;101591.88;4974486;28;45518;-62
2022/04/04 05:22:05;;;;;;;;;2.00;2.00;;;;;18.07;27.68;101588.38;4974632;28;45424;-65
2022/04/04 05:24:30;;;;;;;;;4.00;4.00;;;;;18.06;27.48;101594.53;4974713;28;45467;-63
2022/04/04 05:26:56;;;;;;;;;5.00;3.00;;;;;18.05;27.50;101588.44;4974884;28;45585;-64
2022/04/04 05:29:26;;;;;;;;;3.00;3.00;;;;;18.06;27.56;101594.53;4974634;28;45315;-62
2022/04/04 05:31:55;;;;;;;;;1.75;1.75;;;;;18.06;27.61;101589.28;4973412;28;45750;-64
2022/04/04 05:34:21;;;;;;;;;3.00;3.00;;;;;18.05;27.63;101593.69;4974846;28;45384;-65
2022/04/04 05:36:48;;;;;;;;;4.25;3.00;;;;;18.04;27.57;101599.84;4974862;28;45617;-65
2022/04/04 05:39:13;;;;;;;;;3.00;3.00;;;;;18.03;27.58;101578.88;4973028;28;47501;-64
2022/04/04 05:41:39;;;;;;;;;4.75;2.50;;;;;18.03;27.68;101585.00;4974280;28;45244;-63
2022/04/04 05:44:06;;;;;;;;;2.75;2.00;;;;;18.02;27.66;101583.28;4974460;28;45371;-64
2022/04/04 05:46:32;;;;;;;;;4.00;3.00;;;;;18.03;27.62;101585.00;4974587;28;45503;-62
2022/04/04 05:48:58;;;;;;;;;2.00;2.00;;;;;18.02;27.53;101585.91;4974245;28;47069;-63
2022/04/04 05:51:23;;;;;;;;;2.00;2.00;;;;;18.01;27.75;101591.22;4974224;28;45448;-63
2022/04/04 05:53:49;;;;;;;;;3.00;2.25;;;;;18.02;27.67;101583.28;4974543;28;45473;-61
2022/04/04 05:56:14;;;;;;;;;1.50;1.50;;;;;18.00;27.52;101592.97;4974425;28;45432;-62
2022/04/04 05:58:40;;;;;;;;;3.25;3.00;;;;;18.02;27.60;101595.56;4972623;28;46661;-62
2022/04/04 06:01:08;;;;;;;;;4.00;4.00;;;;;18.02;27.46;101592.94;4974115;28;45543;-62
2022/04/04 06:03:33;;;;;;;;;2.50;2.50;;;;;18.00;27.62;101589.50;4974164;28;45304;-62
2022/04/04 06:05:59;;;;;;;;;3.50;3.50;;;;;18.02;27.60;101582.44;4974470;28;45256;-65
2022/04/04 06:08:24;;;;;;;;;3.00;3.00;;;;;18.00;27.69;101594.75;4973067;28;46045;-62
2022/04/04 06:10:50;;;;;;;;;3.00;2.25;;;;;18.01;27.76;101580.72;4974193;28;45339;-63
2022/04/04 06:13:17;;;;;;;;;4.00;4.00;;;;;18.02;27.51;101587.69;4974219;28;45216;-62
2022/04/04 06:15:43;;;;;;;;;3.25;3.25;;;;;18.01;27.76;101585.97;4974244;28;45372;-66
2022/04/04 06:18:10;;;;;;;;;5.00;2.50;;;;;18.01;27.78;101571.09;4973605;28;45425;-66
2022/04/04 06:20:36;;;;;;;;;2.25;2.25;;;;;18.01;27.77;101578.13;4974028;28;45481;-62
2022/04/04 06:23:02;;;;;;;;;2.00;2.00;;;;;18.00;27.61;101574.63;4973835;28;45420;-65
2022/04/04 06:25:27;;;;;;;;;2.50;2.50;;;;;18.00;27.78;101573.78;4974045;28;45465;-65
2022/04/04 06:27:53;;;;;;;;;3.00;3.00;;;;;17.99;27.78;101572.06;4974065;28;45302;-63
2022/04/04 06:30:18;;;;;;;;;3.25;3.25;;;;;18.00;27.72;101579.00;4973622;28;45375;-65
2022/04/04 06:32:44;;;;;;;;;4.00;4.00;;;;;18.01;27.74;101575.50;4973763;28;45360;-62
2022/04/04 06:35:11;;;;;;;;;4.00;3.00;;;;;18.02;27.83;101566.72;4973739;28;45489;-65
2022/04/04 06:37:36;;;;;;;;;2.75;2.75;;;;;18.00;27.91;101568.53;4973613;28;45448;-63
2022/04/04 06:40:03;;;;;;;;;2.25;2.25;;;;;18.02;27.88;101575.44;4973584;28;45232;-64
2022/04/04 06:42:28;;;;;;;;;3.75;2.00;;;;;18.01;27.67;101565.00;4973561;28;45476;-60
2022/04/04 06:44:58;;;;;;;;;3.50;2.00;;;;;18.01;27.82;101565.00;4974039;28;45512;-63
2022/04/04 06:47:24;;;;;;;;;2.25;2.25;;;;;18.01;27.92;101570.25;4973635;28;46146;-63
2022/04/04 06:49:52;;;;;;;;;2.25;2.00;;;;;18.02;27.78;101566.72;4973565;28;45303;-63
2022/04/04 06:52:18;;;;;;;;;3.75;3.00;;;;;18.01;27.94;101565.00;4973736;28;45233;-62
2022/04/04 06:54:43;;;;;;;;;2.50;2.50;;;;;18.01;27.88;101567.63;4973670;28;45606;-61
2022/04/04 06:57:09;;;;;;;;;3.00;3.00;;;;;18.03;27.81;101568.41;4973145;28;45395;-62
2022/04/04 06:59:34;;;;;;;;;2.00;2.00;;;;;18.00;27.85;101564.13;4972141;28;45419;-62
2022/04/04 07:02:00;;;;;;;;;3.00;2.00;;;;;18.02;27.82;101561.47;4973268;28;45322;-66
2022/04/04 07:04:25;;;;;;;;;2.25;2.00;;;;;18.02;27.98;101559.69;4973897;28;45436;-65
2022/04/04 07:06:50;;;;;;;;;2.00;2.00;;;;;18.02;27.57;101554.44;4971856;28;46293;-66
2022/04/04 07:09:16;;;;;;;;;2.00;2.00;;;;;18.02;28.11;101553.59;4973152;28;45580;-63
2022/04/04 07:11:41;;;;;;;;;2.00;2.00;;;;;18.02;27.71;101551.81;4973306;28;45329;-65
2022/04/04 07:14:06;;;;;;;;;3.00;3.00;;;;;18.01;27.92;101552.72;4973321;28;45485;-65
2022/04/04 07:16:32;;;;;;;;;2.00;2.00;;;;;18.03;27.86;101547.41;4972815;28;45480;-65
2022/04/04 07:18:58;;;;;;;;;3.50;2.00;;;;;18.02;27.80;101549.19;4971420;28;45445;-65
2022/04/04 07:21:23;;;;;;;;;5.75;3.00;;;;;18.02;27.88;101543.09;4974495;28;45387;-66
2022/04/04 07:23:50;;;;;;;;;3.00;3.00;;;;;18.03;27.89;101550.03;4976351;28;45178;-61
2022/04/04 07:26:19;;;;;;;;;2.00;2.00;;;;;18.04;27.71;101543.88;4975855;28;46092;-64
2022/04/04 07:28:46;;;;;;;;;2.00;1.25;;;;;18.04;27.86;101541.25;4974525;28;45432;-66
2022/04/04 07:31:12;;;;;;;;;1.00;1.00;;;;;18.04;27.76;101533.41;4976216;28;46079;-64
2022/04/04 07:33:37;;;;;;;;;2.00;2.00;;;;;18.03;27.95;101529.06;4976184;28;45435;-65
2022/04/04 07:36:03;;;;;;;;;2.75;2.50;;;;;18.04;27.90;101533.41;4974331;28;46882;-64
2022/04/04 07:38:29;;;;;;;;;2.50;1.50;;;;;18.03;27.87;101522.06;4975847;28;45268;-63
2022/04/04 07:40:54;;;;;;;;;2.75;2.00;;;;;18.04;27.96;101528.16;4976221;28;45326;-65
2022/04/04 07:43:19;;;;;;;;;2.50;2.50;;;;;18.04;27.67;101517.66;4976209;28;45583;-64
2022/04/04 07:45:45;;;;;;;;;2.00;2.00;;;;;18.06;27.99;101518.47;4975470;28;45457;-64
2022/04/04 07:48:11;;;;;;;;;1.25;1.25;;;;;18.05;27.86;101524.63;4975534;28;45393;-64
2022/04/04 07:50:36;;;;;;;;;2.00;2.00;;;;;18.06;27.90;101518.47;4975845;28;45302;-66
2022/04/04 07:53:02;;;;;;;;;4.00;1.00;;;;;18.06;28.02;101516.72;4975602;28;45612;-65
2022/04/04 07:55:28;;;;;;;;;2.00;2.00;;;;;18.06;27.90;101518.47;4975830;28;45361;-65
2022/04/04 07:57:53;;;;;;;;;2.25;2.25;;;;;18.06;27.88;101511.47;4975653;28;45460;-65
2022/04/04 08:00:19;;;;;;;;;5.00;2.00;;;;;18.07;27.67;101512.31;4975633;28;45734;-65
2022/04/04 08:02:45;;;;;;;;;1.75;1.75;;;;;18.07;27.81;101510.56;4975881;28;45309;-65
2022/04/04 08:05:11;;;;;;;;;1.00;1.00;;;;;18.05;27.88;101499.25;4975364;28;46103;-65
2022/04/04 08:07:37;;;;;;;;;2.00;2.00;;;;;18.06;27.87;101495.72;4975551;28;45959;-64
2022/04/04 08:10:04;;;;;;;;;5.00;4.00;;;;;18.06;27.85;101495.72;4975611;28;45323;-65
2022/04/04 08:12:29;;;;;;;;;1.75;1.00;;;;;18.07;27.91;101500.06;4975958;28;45430;-65
2022/04/04 08:14:55;;;;;;;;;2.00;2.00;;;;;18.07;28.02;101496.56;4975497;28;45453;-66
2022/04/04 08:17:21;;;;;;;;;1.25;1.25;;;;;18.08;27.83;101498.28;4973789;28;45409;-65
2022/04/04 08:19:48;;;;;;;;;2.25;2.25;;;;;18.08;27.88;101493.03;4975408;28;45402;-65
2022/04/04 08:22:14;;;;;;;;;2.75;2.75;;;;;18.08;27.89;101495.66;4975434;28;45570;-65
2022/04/04 08:24:41;;;;;;;;;2.75;2.00;;;;;18.11;27.91;101497.31;4974984;28;45339;-65
2022/04/04 08:27:07;;;;;;;;;2.00;2.00;;;;;18.10;27.71;101485.97;4975147;28;45468;-65
2022/04/04 08:29:33;;;;;;;;;1.00;1.00;;;;;18.11;27.86;101479.84;4975183;28;45343;-66
2022/04/04 08:31:58;;;;;;;;;1.00;1.00;;;;;18.10;27.86;101480.75;4975225;28;45232;-65
2022/04/04 08:34:23;;;;;;;;;1.75;1.75;;;;;18.11;27.85;101482.47;4975015;28;46354;-66
2022/04/04 08:36:49;;;;;;;;;2.00;0.25;;;;;18.12;27.98;101478.94;4974992;28;45359;-64
2022/04/04 08:39:14;;;;;;;;;1.50;1.50;;;;;18.12;28.04;101473.69;4975196;28;45278;-66
2022/04/04 08:41:40;;;;;;;;;1.00;1.00;;;;;18.13;28.04;101470.16;4975422;28;45218;-66
2022/04/04 08:44:05;;;;;;;;;2.25;1.00;;;;;18.12;27.97;101471.06;4974858;28;45508;-65
2022/04/04 08:46:34;;;;;;;;;1.00;1.00;;;;;18.13;27.96;101470.16;4975311;28;45236;-61
2022/04/04 08:49:04;;;;;;;;;1.00;1.00;;;;;18.13;28.07;101454.41;4975439;28;45251;-66
2022/04/04 08:51:30;;;;;;;;;1.50;1.50;;;;;18.14;27.84;101463.97;4975344;28;45530;-65
2022/04/04 08:53:56;;;;;;;;;1.00;1.00;;;;;18.13;28.04;101461.41;4974655;28;45318;-65
2022/04/04 08:56:25;;;;;;;;;1.00;1.00;;;;;18.15;27.92;101462.22;4974738;28;45254;-65
2022/04/04 08:58:52;;;;;;;;;1.00;1.00;;;;;18.15;27.92;101449.09;4975004;28;45440;-65
2022/04/04 09:01:19;;;;;;;;;4.25;3.00;;;;;18.14;28.25;101463.97;4975328;28;45341;-66
2022/04/04 09:03:44;;;;;;;;;1.00;1.00;;;;;18.12;28.01;101451.81;4974827;28;46062;-65
2022/04/04 09:06:10;;;;;;;;;2.00;2.00;;;;;18.15;28.04;101446.47;4974873;28;45374;-65
2022/04/04 09:08:51;;;;;;;;;5.00;1.00;;;;;18.15;28.04;101452.56;4975013;28;45333;-63
2022/04/04 09:11:16;;;;;;;;;2.50;2.50;;;;;18.15;28.10;101444.69;4974803;28;45326;-66
2022/04/04 09:13:43;;;;;;;;;2.00;1.25;;;;;18.16;28.00;101438.53;4973349;28;46032;-67
2022/04/04 09:16:10;;;;;;;;;2.50;1.00;;;;;18.15;28.10;101435.97;4973126;28;45277;-65
2022/04/04 09:18:35;;;;;;;;;1.00;1.00;;;;;18.16;27.97;101433.28;4974783;28;45320;-65
2022/04/04 09:21:01;;;;;;;;;3.00;2.00;;;;;18.16;28.04;101425.41;4975289;28;45479;-63
2022/04/04 09:23:47;;;;;;;;;2.00;1.00;;;;;18.16;27.62;101435.91;4974472;28;45304;-65
2022/04/04 09:26:28;;;;;;;;;2.75;2.75;;;;;18.17;27.96;101434.16;4974714;28;45382;-65
2022/04/04 09:28:54;;;;;;;;;2.00;2.00;;;;;18.16;27.99;101421.94;4974912;28;45276;-64
2022/04/04 09:31:19;;;;;;;;;0.75;0.75;;;;;18.15;27.80;101426.31;4974879;28;45493;-64
2022/04/04 09:33:44;;;;;;;;;1.00;1.00;;;;;18.17;27.90;101424.50;4974641;28;45323;-65
2022/04/04 09:36:10;;;;;;;;;1.75;1.75;;;;;18.15;27.78;101407.13;4974433;28;45335;-65
2022/04/04 09:38:35;;;;;;;;;2.00;2.00;;;;;18.16;28.00;101411.47;4973350;28;45284;-66
2022/04/04 09:41:17;;;;;;;;;1.00;1.00;;;;;18.17;28.09;101403.53;4973784;28;45655;-65
2022/04/04 09:43:54;;;;;;;;;1.25;1.00;;;;;18.17;27.93;101398.28;4973079;28;46597;-65
2022/04/04 09:46:20;;;;;;;;;1.00;1.00;;;;;18.17;28.11;101403.53;4974323;28;45242;-62
2022/04/04 09:49:13;;;;;;;;;2.25;0.75;;;;;18.18;28.02;101404.38;4974306;28;45446;-65
2022/04/04 09:51:55;;;;;;;;;1.00;1.00;;;;;18.16;27.93;101395.72;4978689;28;45431;-66
2022/04/04 09:54:28;;;;;;;;;1.00;1.00;;;;;18.18;27.99;101399.16;4974205;28;47460;-65
2022/04/04 09:57:10;;;;;;;;;1.00;1.00;;;;;18.17;27.92;101400.06;4975505;28;45371;-64
2022/04/04 09:59:37;;;;;;;;;1.50;0.00;;;;;18.17;28.03;101386.94;4972515;28;45384;-66
2022/04/04 10:02:04;;;;;;;;;0.25;0.25;;;;;18.17;28.00;101382.53;4974809;28;45382;-65
2022/04/04 10:04:33;;;;;;;;;1.25;1.25;;;;;18.17;27.81;101377.28;4974428;28;45466;-66
2022/04/04 10:07:03;;;;;;;;;1.00;1.00;;;;;18.16;28.12;101383.44;4974213;28;45189;-64
2022/04/04 10:09:29;;;;;;;;;1.50;1.50;;;;;18.17;27.92;101374.66;4974223;28;45288;-65
2022/04/04 10:11:56;;;;;;;;;1.00;1.00;;;;;18.18;27.82;101376.38;4974307;28;45459;-62
2022/04/04 10:14:23;;;;;;;;;1.00;1.00;;;;;18.16;27.95;101370.31;4973797;28;45466;-64
2022/04/04 10:16:50;;;;;;;;;1.00;1.00;;;;;18.17;27.75;101382.53;4973807;28;45294;-64
2022/04/04 10:19:17;;;;;;;;;1.00;1.00;;;;;18.18;27.49;101373.75;4973795;28;45411;-63
2022/04/04 10:21:43;;;;;;;;;1.00;1.00;;;;;18.18;27.78;101368.50;4973970;28;45293;-65
2022/04/04 10:24:11;;;;;;;;;1.75;0.25;;;;;18.18;27.70;101362.41;4972380;28;46455;-64
2022/04/04 10:26:37;;;;;;;;;2.00;1.00;;;;;18.19;27.65;101359.72;4973839;28;45907;-63
2022/04/04 10:29:12;;;;;;;;;1.00;1.00;;;;;18.18;27.64;101363.25;4974172;28;45546;-65
2022/04/04 10:31:47;;;;;;;;;2.50;1.00;;;;;18.17;27.48;101344.97;4973896;28;45455;-63
2022/04/04 10:34:18;;;;;;;;;0.00;0.00;;;;;18.19;27.54;101341.34;4973510;28;45413;-65
2022/04/04 10:37:07;;;;;;;;;1.00;1.00;;;;;18.19;27.76;101338.72;4972323;28;46114;-63
2022/04/04 10:40:03;;;;;;;;;0.75;0.75;;;;;18.18;27.40;101331.78;4974174;28;45421;-65
2022/04/04 10:42:36;;;;;;;;;2.00;2.00;;;;;18.19;27.44;101324.78;4963831;28;45690;-63
2022/04/04 10:45:06;;;;;;;;;1.00;1.00;;;;;18.18;27.42;101331.78;4973684;28;46325;-64
2022/04/04 10:47:33;;;;;;;;;1.00;1.00;;;;;18.19;27.23;101330.03;4973649;28;45404;-63
2022/04/04 10:50:16;;;;;;;;;0.00;0.00;;;;;18.18;27.55;101326.53;4972260;28;45509;-66
2022/04/04 10:52:43;;;;;;;;;2.00;1.00;;;;;18.17;27.52;101318.72;4973811;28;45468;-65
2022/04/04 10:55:27;;;;;;;;;1.00;1.00;;;;;18.19;27.53;101323.00;4975289;28;45982;-65
2022/04/04 10:58:08;;;;;;;;;2.00;2.00;;;;;18.17;27.49;101319.56;4976534;28;45438;-64
2022/04/04 11:00:51;;;;;;;;;1.00;1.00;;;;;18.17;27.24;101305.59;4976752;28;45225;-65
2022/04/04 11:03:17;;;;;;;;;1.50;1.50;;;;;18.18;27.38;101304.69;4976580;28;45334;-65
2022/04/04 11:09:04;;;;;;;;;2.00;0.25;;;;;18.17;27.23;101302.97;4976054;28;45422;-63
2022/04/04 11:12:00;;;;;;;;;1.00;0.00;;;;;18.17;27.32;101300.38;4974897;28;45371;-65
2022/04/04 11:14:28;;;;;;;;;1.00;1.00;;;;;18.17;27.42;101287.25;4984662;28;45466;-64
2022/04/04 11:17:06;;;;;;;;;0.50;0.50;;;;;18.17;27.22;101282.84;4975879;28;46394;-62
2022/04/04 11:19:47;;;;;;;;;1.50;1.50;;;;;18.17;27.12;101272.34;4976015;28;45435;-64
2022/04/04 11:22:24;;;;;;;;;1.50;1.00;;;;;18.17;27.29;101277.59;4976169;28;45477;-65
2022/04/04 11:24:54;;;;;;;;;1.00;1.00;;;;;18.17;27.02;101272.34;4976334;28;45382;-61
2022/04/04 11:27:21;;;;;;;;;2.00;1.00;;;;;18.17;27.20;101264.47;4975854;28;45391;-65
2022/04/04 11:29:47;;;;;;;;;0.00;0.00;;;;;18.16;27.16;101260.13;4974713;28;45707;-65